Time;durP1;ratioP1;P1;durP2;ratioP2;P2;SDS_P1;SDS_P2;PMS_P1;PMS_P2;Temp;Humidity;BMP_temperature;BMP_pressure;BME280_temperature;BME280_humidity;BME280_pressure;Samples;Min_cycle;Max_cycle;Signal;HPM_P1;HPM_P2
2021/05/08 00:00:49;;;;;;;;;;;;;;;;;;5031765;28;19917;-43
2021/05/08 00:03:15;;;;;;;;;;;;;;;;;;5030485;28;19910;-43
2021/05/08 00:05:41;;;;;;;;;;;;;;;;;;5035226;28;19921;-43
2021/05/08 00:08:07;;;;;;;;;;;;;;;;;;5042191;28;19913;-43
2021/05/08 00:10:32;;;;;;;;;;;;;;;;;;5028709;28;20410;-43
2021/05/08 00:12:58;;;;;;;;;;;;;;;;;;5033010;28;19913;-43
2021/05/08 00:15:26;;;;;;;;;;;;;;;;;;5031071;28;20039;-43
2021/05/08 00:17:52;;;;;;;;;;;;;;;;;;5029281;28;19914;-43
2021/05/08 00:20:18;;;;;;;;;;;;;;;;;;5034215;28;19927;-43
2021/05/08 00:22:44;;;;;;;;;;;;;;;;;;5032707;28;20008;-43
2021/05/08 00:25:10;;;;;;;;;;;;;;;;;;5038717;28;19975;-43
2021/05/08 00:27:36;;;;;;;;;;;;;;;;;;5043795;28;19919;-43
2021/05/08 00:30:02;;;;;;;;;;;;;;;;;;5040283;28;19916;-43
2021/05/08 00:32:28;;;;;;;;;;;;;;;;;;5034607;28;19951;-42
2021/05/08 00:34:54;;;;;;;;;;;;;;;;;;5044272;28;19916;-45
2021/05/08 00:37:20;;;;;;;;;;;;;;;;;;5030937;28;19924;-44
2021/05/08 00:39:46;;;;;;;;;;;;;;;;;;5033009;28;19955;-43
2021/05/08 00:42:11;;;;;;;;;;;;;;;;;;5038884;28;20379;-43
2021/05/08 00:44:38;;;;;;;;;;;;;;;;;;5032853;28;19916;-44
2021/05/08 00:47:04;;;;;;;;;;;;;;;;;;5033952;28;19927;-43
2021/05/08 00:49:31;;;;;;;;;;;;;;;;;;5030073;28;19921;-44
2021/05/08 00:51:57;;;;;;;;;;;;;;;;;;5029341;28;19913;-44
2021/05/08 00:54:23;;;;;;;;;;;;;;;;;;5028460;28;19920;-44
2021/05/08 00:56:48;;;;;;;;;;;;;;;;;;5029261;28;19920;-43
2021/05/08 00:59:14;;;;;;;;;;;;;;;;;;5031890;28;19917;-44
2021/05/08 01:01:40;;;;;;;;;;;;;;;;;;5032267;28;19917;-43
2021/05/08 01:04:06;;;;;;;;;;;;;;;;;;5031481;28;19963;-43
2021/05/08 01:06:33;;;;;;;;;;;;;;;;;;5032060;28;19917;-44
2021/05/08 01:08:59;;;;;;;;;;;;;;;;;;5035161;28;19952;-44
2021/05/08 01:11:25;;;;;;;;;;;;;;;;;;5037193;28;19967;-44
2021/05/08 01:13:51;;;;;;;;;;;;;;;;;;5031078;28;20008;-43
2021/05/08 01:16:17;;;;;;;;;;;;;;;;;;5029571;28;20388;-43
2021/05/08 01:18:42;;;;;;;;;;;;;;;;;;5030395;28;19913;-43
2021/05/08 01:21:08;;;;;;;;;;;;;;;;;;5036187;28;19921;-44
2021/05/08 01:23:34;;;;;;;;;;;;;;;;;;5042727;28;19913;-44
2021/05/08 01:26:00;;;;;;;;;;;;;;;;;;5041122;28;20271;-43
2021/05/08 01:28:27;;;;;;;;;;;;;;;;;;5032891;28;20364;-44
2021/05/08 01:30:53;;;;;;;;;;;;;;;;;;5038741;28;19925;-43
2021/05/08 01:33:19;;;;;;;;;;;;;;;;;;5036210;28;20287;-43
2021/05/08 01:35:45;;;;;;;;;;;;;;;;;;5032271;28;19990;-43
2021/05/08 01:38:11;;;;;;;;;;;;;;;;;;5037259;28;20430;-43
2021/05/08 01:40:37;;;;;;;;;;;;;;;;;;5035494;28;19921;-44
2021/05/08 01:43:03;;;;;;;;;;;;;;;;;;5038371;28;19917;-44
2021/05/08 01:45:29;;;;;;;;;;;;;;;;;;5033668;28;20296;-45
2021/05/08 01:47:55;;;;;;;;;;;;;;;;;;5031662;28;19924;-44
2021/05/08 01:50:21;;;;;;;;;;;;;;;;;;5031112;28;19925;-43
2021/05/08 01:52:46;;;;;;;;;;;;;;;;;;5037286;28;19912;-43
2021/05/08 01:55:12;;;;;;;;;;;;;;;;;;5047213;28;20374;-44
2021/05/08 01:57:38;;;;;;;;;;;;;;;;;;5037390;28;20007;-43
2021/05/08 02:00:04;;;;;;;;;;;;;;;;;;5036438;28;20036;-43
2021/05/08 02:02:30;;;;;;;;;;;;;;;;;;5030965;28;19914;-43
2021/05/08 02:04:56;;;;;;;;;;;;;;;;;;5027005;28;20406;-43
2021/05/08 02:07:22;;;;;;;;;;;;;;;;;;5030432;28;19920;-43
2021/05/08 02:09:48;;;;;;;;;;;;;;;;;;5033697;28;19921;-44
2021/05/08 02:12:14;;;;;;;;;;;;;;;;;;5036572;28;19921;-43
2021/05/08 02:14:40;;;;;;;;;;;;;;;;;;5030012;28;19913;-43
2021/05/08 02:17:06;;;;;;;;;;;;;;;;;;5031197;28;19913;-44
2021/05/08 02:19:32;;;;;;;;;;;;;;;;;;5027305;28;19927;-43
2021/05/08 02:21:58;;;;;;;;;;;;;;;;;;5029523;28;19953;-43
2021/05/08 02:24:24;;;;;;;;;;;;;;;;;;5033349;28;19924;-45
2021/05/08 02:26:50;;;;;;;;;;;;;;;;;;5030386;28;19921;-48
2021/05/08 02:29:16;;;;;;;;;;;;;;;;;;5034387;28;20288;-43
2021/05/08 02:31:41;;;;;;;;;;;;;;;;;;5028745;28;19948;-44
2021/05/08 02:34:07;;;;;;;;;;;;;;;;;;5024565;28;19959;-44
2021/05/08 02:36:33;;;;;;;;;;;;;;;;;;5029232;28;20075;-43
2021/05/08 02:38:59;;;;;;;;;;;;;;;;;;5036223;28;19935;-43
2021/05/08 02:41:25;;;;;;;;;;;;;;;;;;5032989;28;19913;-44
2021/05/08 02:43:51;;;;;;;;;;;;;;;;;;5031024;28;19927;-43
2021/05/08 02:46:17;;;;;;;;;;;;;;;;;;5027450;28;20016;-44
2021/05/08 02:48:43;;;;;;;;;;;;;;;;;;5030669;28;19959;-43
2021/05/08 02:51:09;;;;;;;;;;;;;;;;;;5033662;28;19948;-44
2021/05/08 02:53:35;;;;;;;;;;;;;;;;;;5040522;28;19948;-44
2021/05/08 02:56:00;;;;;;;;;;;;;;;;;;5035764;28;20351;-44
2021/05/08 02:58:26;;;;;;;;;;;;;;;;;;5037985;28;20463;-44
2021/05/08 03:00:52;;;;;;;;;;;;;;;;;;5031767;28;20030;-43
2021/05/08 03:03:18;;;;;;;;;;;;;;;;;;5035276;28;20011;-44
2021/05/08 03:05:44;;;;;;;;;;;;;;;;;;5039533;28;19921;-44
2021/05/08 03:08:10;;;;;;;;;;;;;;;;;;5036184;28;20261;-44
2021/05/08 03:10:36;;;;;;;;;;;;;;;;;;5033897;28;20436;-44
2021/05/08 03:13:02;;;;;;;;;;;;;;;;;;5035510;28;19919;-45
2021/05/08 03:15:28;;;;;;;;;;;;;;;;;;5031840;28;20089;-45
2021/05/08 03:17:54;;;;;;;;;;;;;;;;;;5029046;28;19925;-45
2021/05/08 03:20:22;;;;;;;;;;;;;;;;;;5032107;28;19917;-44
2021/05/08 03:22:48;;;;;;;;;;;;;;;;;;5038471;28;20318;-44
2021/05/08 03:25:14;;;;;;;;;;;;;;;;;;5035018;28;19927;-45
2021/05/08 03:27:40;;;;;;;;;;;;;;;;;;5029306;28;19924;-44
2021/05/08 03:30:05;;;;;;;;;;;;;;;;;;5039159;28;19971;-44
2021/05/08 03:32:31;;;;;;;;;;;;;;;;;;5029143;28;20063;-44
2021/05/08 03:34:57;;;;;;;;;;;;;;;;;;5028659;28;20371;-45
2021/05/08 03:37:23;;;;;;;;;;;;;;;;;;5029628;28;19925;-44
2021/05/08 03:39:49;;;;;;;;;;;;;;;;;;5030067;28;19917;-45
2021/05/08 03:42:15;;;;;;;;;;;;;;;;;;5029261;28;19963;-44
2021/05/08 03:44:41;;;;;;;;;;;;;;;;;;5032818;28;19936;-45
2021/05/08 03:47:09;;;;;;;;;;;;;;;;;;5028289;28;20403;-44
2021/05/08 03:49:35;;;;;;;;;;;;;;;;;;5031620;28;19982;-44
2021/05/08 03:52:01;;;;;;;;;;;;;;;;;;5039661;28;19913;-44
2021/05/08 03:54:27;;;;;;;;;;;;;;;;;;5039391;28;19967;-44
2021/05/08 03:56:53;;;;;;;;;;;;;;;;;;5031679;28;19917;-44
2021/05/08 03:59:19;;;;;;;;;;;;;;;;;;5029290;28;19921;-44
2021/05/08 04:01:45;;;;;;;;;;;;;;;;;;5035645;28;19936;-44
2021/05/08 04:04:10;;;;;;;;;;;;;;;;;;5034330;28;20034;-46
2021/05/08 04:06:36;;;;;;;;;;;;;;;;;;5039656;28;19959;-44
2021/05/08 04:09:02;;;;;;;;;;;;;;;;;;5041670;28;20743;-43
2021/05/08 04:11:28;;;;;;;;;;;;;;;;;;5047659;28;19917;-44
2021/05/08 04:13:54;;;;;;;;;;;;;;;;;;5044833;28;19917;-44
2021/05/08 04:16:20;;;;;;;;;;;;;;;;;;5035193;28;19928;-48
2021/05/08 04:18:46;;;;;;;;;;;;;;;;;;5040002;28;20371;-45
2021/05/08 04:21:12;;;;;;;;;;;;;;;;;;5039747;28;19951;-42
2021/05/08 04:23:38;;;;;;;;;;;;;;;;;;5040468;28;19921;-43
2021/05/08 04:26:04;;;;;;;;;;;;;;;;;;5034823;28;19913;-43
2021/05/08 04:28:29;;;;;;;;;;;;;;;;;;5042822;28;20399;-43
2021/05/08 04:30:55;;;;;;;;;;;;;;;;;;5040423;28;20007;-43
2021/05/08 04:33:21;;;;;;;;;;;;;;;;;;5039885;28;19917;-44
2021/05/08 04:35:47;;;;;;;;;;;;;;;;;;5036120;28;19999;-42
2021/05/08 04:38:13;;;;;;;;;;;;;;;;;;5049533;28;19995;-43
2021/05/08 04:40:39;;;;;;;;;;;;;;;;;;5044962;28;19919;-42
2021/05/08 04:43:05;;;;;;;;;;;;;;;;;;5034121;28;20342;-43
2021/05/08 04:45:31;;;;;;;;;;;;;;;;;;5036914;28;19971;-43
2021/05/08 04:47:57;;;;;;;;;;;;;;;;;;5038951;28;19912;-42
2021/05/08 04:50:23;;;;;;;;;;;;;;;;;;5038471;28;19996;-43
2021/05/08 04:52:49;;;;;;;;;;;;;;;;;;5045586;28;20264;-42
2021/05/08 04:55:15;;;;;;;;;;;;;;;;;;5046080;28;19917;-45
2021/05/08 04:57:41;;;;;;;;;;;;;;;;;;5038701;28;19950;-43
2021/05/08 05:00:07;;;;;;;;;;;;;;;;;;5029587;28;20261;-43
2021/05/08 05:02:33;;;;;;;;;;;;;;;;;;5036170;28;20275;-43
2021/05/08 05:04:58;;;;;;;;;;;;;;;;;;5039273;28;19968;-43
2021/05/08 05:07:24;;;;;;;;;;;;;;;;;;5035984;28;19979;-44
2021/05/08 05:09:50;;;;;;;;;;;;;;;;;;5032049;28;19920;-43
2021/05/08 05:12:17;;;;;;;;;;;;;;;;;;5038810;28;19912;-42
2021/05/08 05:14:43;;;;;;;;;;;;;;;;;;5041503;28;19913;-43
2021/05/08 05:17:09;;;;;;;;;;;;;;;;;;5043088;28;19916;-43
2021/05/08 05:19:35;;;;;;;;;;;;;;;;;;5041687;28;19924;-42
2021/05/08 05:22:01;;;;;;;;;;;;;;;;;;5032397;28;20265;-42
2021/05/08 05:24:26;;;;;;;;;;;;;;;;;;5042837;28;19952;-43
2021/05/08 05:26:52;;;;;;;;;;;;;;;;;;5041518;28;19959;-44
2021/05/08 05:29:18;;;;;;;;;;;;;;;;;;5036559;28;19956;-42
2021/05/08 05:31:44;;;;;;;;;;;;;;;;;;5033275;28;19963;-45
2021/05/08 05:34:10;;;;;;;;;;;;;;;;;;5036579;28;19920;-45
2021/05/08 05:36:36;;;;;;;;;;;;;;;;;;5037147;28;19912;-43
2021/05/08 05:39:02;;;;;;;;;;;;;;;;;;5038478;28;19913;-43
2021/05/08 05:41:28;;;;;;;;;;;;;;;;;;5039784;28;19917;-43
2021/05/08 05:43:54;;;;;;;;;;;;;;;;;;5037256;28;19941;-44
2021/05/08 05:46:20;;;;;;;;;;;;;;;;;;5034926;28;19953;-43
2021/05/08 05:48:46;;;;;;;;;;;;;;;;;;5037551;28;20291;-43
2021/05/08 05:51:12;;;;;;;;;;;;;;;;;;5033835;28;20295;-44
2021/05/08 05:53:38;;;;;;;;;;;;;;;;;;5040539;28;19960;-43
2021/05/08 05:56:04;;;;;;;;;;;;;;;;;;5032373;28;19942;-44
2021/05/08 05:58:29;;;;;;;;;;;;;;;;;;5033177;28;19913;-43
2021/05/08 06:00:55;;;;;;;;;;;;;;;;;;5032190;28;19948;-44
2021/05/08 06:03:22;;;;;;;;;;;;;;;;;;5029721;28;19924;-44
2021/05/08 06:05:48;;;;;;;;;;;;;;;;;;5035524;28;19959;-42
2021/05/08 06:08:14;;;;;;;;;;;;;;;;;;5042452;28;19920;-43
2021/05/08 06:10:40;;;;;;;;;;;;;;;;;;5035686;28;19920;-43
2021/05/08 06:13:06;;;;;;;;;;;;;;;;;;5036426;28;19920;-46
2021/05/08 06:15:32;;;;;;;;;;;;;;;;;;5032896;28;20011;-45
2021/05/08 06:17:57;;;;;;;;;;;;;;;;;;5043523;28;19940;-44
2021/05/08 06:20:23;;;;;;;;;;;;;;;;;;5041477;28;19928;-43
2021/05/08 06:22:50;;;;;;;;;;;;;;;;;;5034149;28;19913;-43
2021/05/08 06:25:16;;;;;;;;;;;;;;;;;;5028494;28;19917;-43
2021/05/08 06:27:42;;;;;;;;;;;;;;;;;;5039362;28;19914;-44
2021/05/08 06:30:08;;;;;;;;;;;;;;;;;;5036622;28;20529;-43
2021/05/08 06:32:33;;;;;;;;;;;;;;;;;;5032345;28;19913;-44
2021/05/08 06:34:59;;;;;;;;;;;;;;;;;;5030904;28;19948;-42
2021/05/08 06:37:25;;;;;;;;;;;;;;;;;;5035505;28;19921;-42
2021/05/08 06:39:51;;;;;;;;;;;;;;;;;;5041463;28;19913;-43
2021/05/08 06:42:17;;;;;;;;;;;;;;;;;;5038433;28;19935;-44
2021/05/08 06:44:43;;;;;;;;;;;;;;;;;;5032676;28;19913;-44
2021/05/08 06:47:15;;;;;;;;;;;;;;;;;;5039357;28;19949;-43
2021/05/08 06:49:40;;;;;;;;;;;;;;;;;;5029232;28;19928;-43
2021/05/08 06:52:06;;;;;;;;;;;;;;;;;;5031348;28;19917;-42
2021/05/08 06:54:32;;;;;;;;;;;;;;;;;;5040275;28;19917;-44
2021/05/08 06:56:58;;;;;;;;;;;;;;;;;;5033077;28;19921;-43
2021/05/08 06:59:24;;;;;;;;;;;;;;;;;;5028892;28;20435;-43
2021/05/08 07:01:50;;;;;;;;;;;;;;;;;;5031399;28;20360;-43
2021/05/08 07:04:16;;;;;;;;;;;;;;;;;;5036295;28;20340;-43
2021/05/08 07:06:43;;;;;;;;;;;;;;;;;;5030257;28;19917;-44
2021/05/08 07:09:09;;;;;;;;;;;;;;;;;;5031260;28;19921;-43
2021/05/08 07:11:35;;;;;;;;;;;;;;;;;;5028384;28;19921;-42
2021/05/08 07:14:01;;;;;;;;;;;;;;;;;;5037086;28;19917;-43
2021/05/08 07:16:27;;;;;;;;;;;;;;;;;;5033974;28;19921;-43
2021/05/08 07:18:53;;;;;;;;;;;;;;;;;;5034025;28;19913;-43
2021/05/08 07:21:19;;;;;;;;;;;;;;;;;;5032531;28;19953;-44
2021/05/08 07:23:45;;;;;;;;;;;;;;;;;;5031334;28;20322;-44
2021/05/08 07:26:11;;;;;;;;;;;;;;;;;;5027883;28;19913;-44
2021/05/08 07:28:37;;;;;;;;;;;;;;;;;;5030081;28;20383;-44
2021/05/08 07:31:03;;;;;;;;;;;;;;;;;;5033839;28;19921;-45
2021/05/08 07:33:29;;;;;;;;;;;;;;;;;;5034822;28;19970;-43
2021/05/08 07:35:55;;;;;;;;;;;;;;;;;;5038949;28;19916;-43
2021/05/08 07:38:21;;;;;;;;;;;;;;;;;;5036534;28;19913;-42
2021/05/08 07:40:50;;;;;;;;;;;;;;;;;;5042356;28;19963;-43
2021/05/08 07:43:16;;;;;;;;;;;;;;;;;;5036398;28;20375;-43
2021/05/08 07:45:42;;;;;;;;;;;;;;;;;;5036587;28;19916;-43
2021/05/08 07:48:08;;;;;;;;;;;;;;;;;;5038336;28;19920;-44
2021/05/08 07:50:34;;;;;;;;;;;;;;;;;;5034938;28;19921;-45
2021/05/08 07:53:00;;;;;;;;;;;;;;;;;;5043000;28;19924;-42
2021/05/08 07:55:26;;;;;;;;;;;;;;;;;;5034380;28;20062;-44
2021/05/08 07:57:52;;;;;;;;;;;;;;;;;;5038381;28;19963;-45
2021/05/08 08:00:18;;;;;;;;;;;;;;;;;;5040910;28;19924;-44
2021/05/08 08:02:44;;;;;;;;;;;;;;;;;;5038229;28;20012;-44
2021/05/08 08:05:10;;;;;;;;;;;;;;;;;;5046414;28;20368;-44
2021/05/08 08:07:36;;;;;;;;;;;;;;;;;;5040310;28;19912;-45
2021/05/08 08:10:01;;;;;;;;;;;;;;;;;;5041197;28;19964;-44
2021/05/08 08:12:28;;;;;;;;;;;;;;;;;;5039370;28;19936;-43
2021/05/08 08:14:53;;;;;;;;;;;;;;;;;;5041899;28;19917;-43
2021/05/08 08:17:20;;;;;;;;;;;;;;;;;;5032906;28;20257;-44
2021/05/08 08:19:50;;;;;;;;;;;;;;;;;;5037895;28;20380;-45
2021/05/08 08:22:16;;;;;;;;;;;;;;;;;;5037165;28;20289;-44
2021/05/08 08:24:42;;;;;;;;;;;;;;;;;;5045871;28;19963;-43
2021/05/08 08:27:08;;;;;;;;;;;;;;;;;;5038541;28;19920;-45
2021/05/08 08:29:34;;;;;;;;;;;;;;;;;;5039989;28;19917;-43
2021/05/08 08:32:00;;;;;;;;;;;;;;;;;;5038648;28;19913;-44
2021/05/08 08:34:26;;;;;;;;;;;;;;;;;;5037565;28;19935;-44
2021/05/08 08:36:52;;;;;;;;;;;;;;;;;;5038399;28;19993;-45
2021/05/08 08:39:18;;;;;;;;;;;;;;;;;;5037300;28;19917;-43
2021/05/08 08:41:44;;;;;;;;;;;;;;;;;;5046133;28;20277;-43
2021/05/08 08:44:10;;;;;;;;;;;;;;;;;;5037859;28;19913;-43
2021/05/08 08:46:36;;;;;;;;;;;;;;;;;;5033149;28;19913;-44
2021/05/08 08:49:02;;;;;;;;;;;;;;;;;;5031451;28;20316;-43
2021/05/08 08:51:28;;;;;;;;;;;;;;;;;;5038197;28;19931;-44
2021/05/08 08:53:55;;;;;;;;;;;;;;;;;;5043879;28;19967;-43
2021/05/08 08:56:21;;;;;;;;;;;;;;;;;;5048581;28;19931;-43
2021/05/08 08:58:54;;;;;;;;;;;;;;;;;;5036539;28;20387;-43
2021/05/08 09:01:20;;;;;;;;;;;;;;;;;;5036506;28;19920;-43
2021/05/08 09:03:46;;;;;;;;;;;;;;;;;;5039973;28;19912;-44
2021/05/08 09:06:12;;;;;;;;;;;;;;;;;;5035564;28;19913;-44
2021/05/08 09:08:38;;;;;;;;;;;;;;;;;;5032380;28;20291;-44
2021/05/08 09:11:03;;;;;;;;;;;;;;;;;;5046342;28;19928;-44
2021/05/08 09:13:29;;;;;;;;;;;;;;;;;;5047987;28;19957;-43
2021/05/08 09:15:56;;;;;;;;;;;;;;;;;;5040142;28;19917;-43
2021/05/08 09:18:22;;;;;;;;;;;;;;;;;;5044923;28;19916;-43
2021/05/08 09:20:48;;;;;;;;;;;;;;;;;;5034490;28;19939;-43
2021/05/08 09:23:14;;;;;;;;;;;;;;;;;;5039992;28;20332;-43
2021/05/08 09:25:40;;;;;;;;;;;;;;;;;;5039592;28;20008;-43
2021/05/08 09:28:06;;;;;;;;;;;;;;;;;;5046224;28;19915;-43
2021/05/08 09:30:32;;;;;;;;;;;;;;;;;;5034407;28;19936;-43
2021/05/08 09:32:58;;;;;;;;;;;;;;;;;;5038093;28;19924;-45
2021/05/08 09:35:24;;;;;;;;;;;;;;;;;;5042135;28;19966;-43
2021/05/08 09:37:50;;;;;;;;;;;;;;;;;;5032759;28;19912;-43
2021/05/08 09:40:16;;;;;;;;;;;;;;;;;;5032109;28;19952;-46
2021/05/08 09:42:42;;;;;;;;;;;;;;;;;;5033450;28;19968;-44
2021/05/08 09:45:08;;;;;;;;;;;;;;;;;;5035301;28;20394;-43
2021/05/08 09:47:34;;;;;;;;;;;;;;;;;;5041729;28;20876;-45
2021/05/08 09:50:00;;;;;;;;;;;;;;;;;;5044330;28;20479;-43
2021/05/08 09:52:26;;;;;;;;;;;;;;;;;;5034673;28;19913;-45
2021/05/08 09:54:52;;;;;;;;;;;;;;;;;;5027840;28;19913;-43
2021/05/08 09:57:18;;;;;;;;;;;;;;;;;;5029630;28;19953;-43
2021/05/08 09:59:43;;;;;;;;;;;;;;;;;;5044514;28;20023;-43
2021/05/08 10:02:10;;;;;;;;;;;;;;;;;;5042848;28;19920;-46
2021/05/08 10:04:37;;;;;;;;;;;;;;;;;;5031500;28;19913;-43
2021/05/08 10:07:03;;;;;;;;;;;;;;;;;;5045317;28;19922;-45
2021/05/08 10:09:29;;;;;;;;;;;;;;;;;;5046624;28;19913;-43
2021/05/08 10:11:55;;;;;;;;;;;;;;;;;;5040716;28;19939;-43
2021/05/08 10:14:21;;;;;;;;;;;;;;;;;;5046219;28;20375;-44
2021/05/08 10:16:47;;;;;;;;;;;;;;;;;;5029146;28;19913;-45
2021/05/08 10:19:13;;;;;;;;;;;;;;;;;;5035459;28;20008;-43
2021/05/08 10:21:39;;;;;;;;;;;;;;;;;;5042098;28;20907;-43
2021/05/08 10:24:05;;;;;;;;;;;;;;;;;;5031982;28;19966;-43
2021/05/08 10:26:31;;;;;;;;;;;;;;;;;;5039949;28;19916;-44
2021/05/08 10:28:57;;;;;;;;;;;;;;;;;;5047079;28;19952;-43
2021/05/08 10:31:22;;;;;;;;;;;;;;;;;;5041714;28;19965;-42
2021/05/08 10:33:48;;;;;;;;;;;;;;;;;;5030095;28;19966;-43
2021/05/08 10:36:14;;;;;;;;;;;;;;;;;;5028807;28;19909;-43
2021/05/08 10:38:40;;;;;;;;;;;;;;;;;;5028470;28;19913;-44
2021/05/08 10:41:10;;;;;;;;;;;;;;;;;;5031978;28;19958;-43
2021/05/08 10:43:37;;;;;;;;;;;;;;;;;;5029139;28;19917;-43
2021/05/08 10:46:03;;;;;;;;;;;;;;;;;;5036908;28;19909;-43
2021/05/08 10:48:28;;;;;;;;;;;;;;;;;;5033474;28;19932;-44
2021/05/08 10:50:54;;;;;;;;;;;;;;;;;;5040935;28;19924;-44
2021/05/08 10:53:21;;;;;;;;;;;;;;;;;;5040783;28;19913;-43
2021/05/08 10:55:47;;;;;;;;;;;;;;;;;;5033909;28;19917;-44
2021/05/08 10:58:14;;;;;;;;;;;;;;;;;;5039321;28;19908;-44
2021/05/08 11:00:39;;;;;;;;;;;;;;;;;;5034502;28;19935;-44
2021/05/08 11:03:06;;;;;;;;;;;;;;;;;;5042453;28;20011;-43
2021/05/08 11:05:34;;;;;;;;;;;;;;;;;;5036216;28;19960;-44
2021/05/08 11:08:00;;;;;;;;;;;;;;;;;;5035289;28;20004;-45
2021/05/08 12:41:43;;;;;;;;;;;;;;;;;;5108441;27;19916;-85
2021/05/08 12:44:09;;;;;;;;;;;;;;;;;;5105966;28;20354;-84
2021/05/08 12:46:34;;;;;;;;;;;;;;;;;;5102508;28;19999;-84
2021/05/08 12:49:00;;;;;;;;;;;;;;;;;;5087087;28;19912;-84
2021/05/08 12:51:26;;;;;;;;;;;;;;;;;;5096628;28;19908;-85
2021/05/08 12:53:52;;;;;;;;;;;;;;;;;;5107880;28;20022;-85
2021/05/08 12:56:18;;;;;;;;;;;;;;;;;;4944042;27;118332;-84
2021/05/08 12:58:44;;;;;;;;;;;;;;;;;;5048572;28;19917;-84
2021/05/08 13:01:10;;;;;;;;;;;;;;;;;;5060668;28;19927;-85
2021/05/08 13:06:02;;;;;;;;;;;;;;;;;;5057361;28;20389;-85
2021/05/08 13:08:28;;;;;;;;;;;;;;;;;;5052000;28;20765;-85
2021/05/08 13:10:54;;;;;;;;;;;;;;;;;;5065449;28;19920;-85
2021/05/08 13:13:20;;;;;;;;;;;;;;;;;;5053987;28;19920;-84
2021/05/08 13:15:46;;;;;;;;;;;;;;;;;;5057526;28;19913;-84
2021/05/08 13:18:12;;;;;;;;;;;;;;;;;;5046528;28;20549;-84
2021/05/08 13:20:37;;;;;;;;;;;;;;;;;;5048065;28;20043;-84
2021/05/08 13:23:04;;;;;;;;;;;;;;;;;;5056130;28;20402;-84
2021/05/08 13:25:30;;;;;;;;;;;;;;;;;;5065173;28;20482;-83
2021/05/08 13:27:56;;;;;;;;;;;;;;;;;;5051913;28;19979;-83
2021/05/08 13:30:21;;;;;;;;;;;;;;;;;;5051749;28;19913;-85
2021/05/08 13:32:47;;;;;;;;;;;;;;;;;;5052924;28;19999;-85
2021/05/08 13:35:13;;;;;;;;;;;;;;;;;;5048114;28;19909;-86
2021/05/08 13:37:39;;;;;;;;;;;;;;;;;;5054699;28;19909;-85
2021/05/08 13:40:05;;;;;;;;;;;;;;;;;;5058004;28;19927;-85
2021/05/08 13:42:31;;;;;;;;;;;;;;;;;;5015279;28;19928;-85
2021/05/08 13:44:57;;;;;;;;;;;;;;;;;;4905159;28;107490;-84
2021/05/08 13:47:23;;;;;;;;;;;;;;;;;;5035262;28;19928;-84
2021/05/08 13:49:49;;;;;;;;;;;;;;;;;;5053067;28;19928;-85
2021/05/08 13:52:15;;;;;;;;;;;;;;;;;;5049228;28;19917;-85
2021/05/08 13:54:41;;;;;;;;;;;;;;;;;;5045551;28;19959;-85
2021/05/08 13:57:07;;;;;;;;;;;;;;;;;;5051360;28;19913;-83
2021/05/08 13:59:33;;;;;;;;;;;;;;;;;;5036642;28;20020;-84
2021/05/08 14:01:59;;;;;;;;;;;;;;;;;;5043408;28;19980;-85
2021/05/08 14:04:25;;;;;;;;;;;;;;;;;;5044558;28;19909;-86
2021/05/08 14:06:50;;;;;;;;;;;;;;;;;;5041127;28;19913;-88
2021/05/08 14:09:16;;;;;;;;;;;;;;;;;;5036915;28;19913;-86
2021/05/08 14:11:42;;;;;;;;;;;;;;;;;;5038747;28;20058;-83
2021/05/08 14:14:08;;;;;;;;;;;;;;;;;;5048929;28;20066;-84
2021/05/08 14:16:34;;;;;;;;;;;;;;;;;;5042940;28;20429;-84
2021/05/08 14:19:00;;;;;;;;;;;;;;;;;;5043028;28;20004;-86
2021/05/08 14:21:27;;;;;;;;;;;;;;;;;;5051812;28;20007;-86
2021/05/08 14:23:53;;;;;;;;;;;;;;;;;;5053112;28;20407;-85
2021/05/08 14:26:18;;;;;;;;;;;;;;;;;;5044196;28;19956;-84
2021/05/08 14:28:44;;;;;;;;;;;;;;;;;;5043973;28;19944;-85
2021/05/08 14:31:10;;;;;;;;;;;;;;;;;;5046670;28;19963;-85
2021/05/08 14:33:36;;;;;;;;;;;;;;;;;;5048897;28;19947;-87
2021/05/08 14:36:02;;;;;;;;;;;;;;;;;;5057307;28;19964;-87
2021/05/08 14:38:28;;;;;;;;;;;;;;;;;;5048717;28;19975;-85
2021/05/08 14:40:54;;;;;;;;;;;;;;;;;;5053621;28;20101;-84
2021/05/08 14:43:20;;;;;;;;;;;;;;;;;;5056318;28;19958;-83
2021/05/08 14:45:46;;;;;;;;;;;;;;;;;;5046636;28;19920;-86
2021/05/08 14:48:12;;;;;;;;;;;;;;;;;;5039090;28;19917;-84
2021/05/08 14:50:38;;;;;;;;;;;;;;;;;;5052244;28;19916;-84
2021/05/08 14:53:05;;;;;;;;;;;;;;;;;;5044257;28;19909;-84
2021/05/08 14:55:31;;;;;;;;;;;;;;;;;;5045559;28;19917;-85
2021/05/08 14:57:56;;;;;;;;;;;;;;;;;;5045000;28;20596;-84
2021/05/08 15:00:23;;;;;;;;;;;;;;;;;;5042902;28;20280;-85
2021/05/08 15:02:49;;;;;;;;;;;;;;;;;;5047473;28;19912;-85
2021/05/08 15:05:15;;;;;;;;;;;;;;;;;;5042755;28;19928;-84
2021/05/08 15:07:41;;;;;;;;;;;;;;;;;;5049829;28;19908;-85
2021/05/08 15:10:07;;;;;;;;;;;;;;;;;;5038774;28;19964;-85
2021/05/08 15:12:33;;;;;;;;;;;;;;;;;;5043239;28;20027;-85
2021/05/08 15:14:59;;;;;;;;;;;;;;;;;;5034839;28;20027;-86
2021/05/08 15:17:25;;;;;;;;;;;;;;;;;;5044463;28;19915;-86
2021/05/08 15:19:51;;;;;;;;;;;;;;;;;;5036964;28;19915;-86
2021/05/08 15:22:17;;;;;;;;;;;;;;;;;;5039001;28;19961;-85
2021/05/08 15:24:43;;;;;;;;;;;;;;;;;;5043781;28;20362;-86
2021/05/08 15:27:08;;;;;;;;;;;;;;;;;;5048029;28;19938;-85
2021/05/08 15:29:34;;;;;;;;;;;;;;;;;;5039916;28;19936;-85
2021/05/08 15:32:00;;;;;;;;;;;;;;;;;;5039812;28;19915;-87
2021/05/08 15:34:26;;;;;;;;;;;;;;;;;;5030267;28;19909;-86
2021/05/08 15:36:54;;;;;;;;;;;;;;;;;;5036105;28;19947;-87
2021/05/08 15:39:20;;;;;;;;;;;;;;;;;;5039202;28;19916;-86
2021/05/08 15:41:46;;;;;;;;;;;;;;;;;;5034477;28;19963;-86
2021/05/08 15:44:12;;;;;;;;;;;;;;;;;;5048131;28;19912;-86
2021/05/08 15:46:38;;;;;;;;;;;;;;;;;;5040839;28;19956;-86
2021/05/08 15:49:05;;;;;;;;;;;;;;;;;;5030009;28;19909;-83
2021/05/08 15:51:31;;;;;;;;;;;;;;;;;;5039823;28;20016;-87
2021/05/08 15:53:56;;;;;;;;;;;;;;;;;;5034084;28;20423;-84
2021/05/08 15:56:22;;;;;;;;;;;;;;;;;;5031734;28;19909;-85
2021/05/08 15:58:48;;;;;;;;;;;;;;;;;;5036184;28;20509;-85
2021/05/08 16:01:14;;;;;;;;;;;;;;;;;;5042355;28;19940;-85
2021/05/08 16:03:40;;;;;;;;;;;;;;;;;;5049849;28;19996;-85
2021/05/08 16:06:06;;;;;;;;;;;;;;;;;;5032805;28;20384;-88
2021/05/08 16:08:32;;;;;;;;;;;;;;;;;;5042080;28;20249;-85
2021/05/08 16:10:58;;;;;;;;;;;;;;;;;;5032289;28;19913;-84
2021/05/08 16:13:24;;;;;;;;;;;;;;;;;;5032217;28;19909;-85
2021/05/08 16:15:50;;;;;;;;;;;;;;;;;;5031677;28;19909;-85
2021/05/08 16:18:16;;;;;;;;;;;;;;;;;;5042356;28;19912;-85
2021/05/08 16:20:42;;;;;;;;;;;;;;;;;;5051396;28;20355;-85
2021/05/08 16:23:08;;;;;;;;;;;;;;;;;;5052367;28;20004;-86
2021/05/08 16:25:33;;;;;;;;;;;;;;;;;;5052358;28;19908;-85
2021/05/08 16:27:59;;;;;;;;;;;;;;;;;;5043898;28;19914;-86
2021/05/08 16:30:25;;;;;;;;;;;;;;;;;;5039259;28;19917;-86
2021/05/08 16:32:51;;;;;;;;;;;;;;;;;;5040168;28;19936;-86
2021/05/08 16:35:17;;;;;;;;;;;;;;;;;;5036719;28;19909;-87
2021/05/08 16:37:43;;;;;;;;;;;;;;;;;;5032307;28;19924;-86
2021/05/08 16:40:12;;;;;;;;;;;;;;;;;;5031231;28;19918;-86
2021/05/08 16:42:38;;;;;;;;;;;;;;;;;;5039084;28;19920;-86
2021/05/08 16:45:04;;;;;;;;;;;;;;;;;;5050117;28;19962;-86
2021/05/08 16:47:34;;;;;;;;;;;;;;;;;;5041327;28;19909;-86
2021/05/08 16:50:00;;;;;;;;;;;;;;;;;;5036077;28;19924;-86
2021/05/08 16:52:26;;;;;;;;;;;;;;;;;;5034036;28;19915;-85
2021/05/08 16:54:52;;;;;;;;;;;;;;;;;;5035896;28;19914;-85
2021/05/08 16:57:18;;;;;;;;;;;;;;;;;;5032851;28;20006;-85
2021/05/08 16:59:44;;;;;;;;;;;;;;;;;;5031936;28;19914;-85
2021/05/08 17:02:10;;;;;;;;;;;;;;;;;;5029385;28;19916;-84
2021/05/08 17:04:36;;;;;;;;;;;;;;;;;;5041888;28;19912;-85
2021/05/08 17:07:02;;;;;;;;;;;;;;;;;;5049735;28;19952;-84
2021/05/08 17:09:28;;;;;;;;;;;;;;;;;;5050975;28;19999;-85
2021/05/08 17:11:54;;;;;;;;;;;;;;;;;;5049598;28;19909;-84
2021/05/08 17:14:20;;;;;;;;;;;;;;;;;;5049198;28;19931;-85
2021/05/08 17:16:46;;;;;;;;;;;;;;;;;;5049624;28;19916;-84
2021/05/08 17:19:12;;;;;;;;;;;;;;;;;;4962186;28;19924;-84
2021/05/08 17:21:38;;;;;;;;;;;;;;;;;;5032157;28;19932;-84
2021/05/08 17:24:03;;;;;;;;;;;;;;;;;;5052470;28;19916;-84
2021/05/08 17:26:29;;;;;;;;;;;;;;;;;;5052932;28;19932;-84
2021/05/08 17:28:55;;;;;;;;;;;;;;;;;;5045346;28;20425;-85
2021/05/08 17:31:21;;;;;;;;;;;;;;;;;;5035154;28;20415;-85
2021/05/08 17:33:47;;;;;;;;;;;;;;;;;;5039241;28;19916;-85
2021/05/08 17:36:14;;;;;;;;;;;;;;;;;;5054816;28;19931;-84
2021/05/08 17:38:39;;;;;;;;;;;;;;;;;;5055917;28;20371;-85
2021/05/08 17:41:09;;;;;;;;;;;;;;;;;;5055246;28;19923;-85
2021/05/08 17:43:35;;;;;;;;;;;;;;;;;;5055778;28;19909;-85
2021/05/08 17:46:01;;;;;;;;;;;;;;;;;;5040836;28;19916;-86
2021/05/08 17:48:26;;;;;;;;;;;;;;;;;;5043670;28;20778;-86
2021/05/08 17:50:52;;;;;;;;;;;;;;;;;;5043605;28;19920;-86
2021/05/08 17:53:18;;;;;;;;;;;;;;;;;;5041265;28;19921;-86
2021/05/08 17:55:44;;;;;;;;;;;;;;;;;;5044885;28;19919;-86
2021/05/08 17:58:10;;;;;;;;;;;;;;;;;;5038180;28;19913;-85
2021/05/08 18:00:36;;;;;;;;;;;;;;;;;;5047611;28;19913;-85
2021/05/08 18:03:02;;;;;;;;;;;;;;;;;;5036261;28;20295;-84
2021/05/08 18:05:28;;;;;;;;;;;;;;;;;;5046114;28;20465;-85
2021/05/08 18:07:54;;;;;;;;;;;;;;;;;;5041329;28;19920;-85
2021/05/08 18:10:21;;;;;;;;;;;;;;;;;;5047805;28;19927;-84